TJIG/SIG METAR and TAF weather

Enter ICAO airport designator
Station Type Date Time Source
TJIG METAR 2022/05/25 22:45 UTC NOAA

TJIG 252245Z 10012KT 10SM SCT018 SCT035 BKN060 28/23 A3001 RMK LAST


Station Type Date Time Source
TJIG Decoded METAR 2022/05/25 22:45 UTC NOAA

Station name not available
May 25, 2022 - 06:45 PM EDT / 2022.05.25 2245 UTC
Wind: from the E (100 degrees) at 14 MPH (12 KT):0
Visibility: 10 mile(s):0
Sky conditions: mostly cloudy
Temperature: 82 F (28 C)
Dew Point: 73 F (23 C)
Relative Humidity: 74%
Pressure (altimeter): 30.01 in. Hg (1016 hPa)
ob: TJIG 252245Z 10012KT 10SM SCT018 SCT035 BKN060 28/23 A3001 RMK LAST
cycle: 23

Station Type Date Time Source
TJIG TAF UTC NOAA

Error!

Example: see airport list